Stations météo

réclame
Mon MeteoGroup
La Molina, Espagne (8117): Température de l'air & dewpoint: 18.01.2018 04:00:00 - 24.01.2018 04:00:00 (CET)La Molina, Espagne (8117): Vitesse du vent & gusts: 18.01.2018 04:00:00 - 24.01.2018 04:00:00 (CET)La Molina, Espagne (8117): Direction du vent: 18.01.2018 04:00:00 - 24.01.2018 04:00:00 (CET)La Molina, Espagne (8117): visibility: 18.01.2018 04:00:00 - 24.01.2018 04:00:00 (CET)La Molina, Espagne (8117): Ensoleillement: 18.01.2018 04:00:00 - 24.01.2018 04:00:00 (CET)La Molina, Espagne (8117): Quantités de précipitations: 18.01.2018 04:00:00 - 24.01.2018 04:00:00 (CET)
Date & Time tt [°C] td [°C] ff [km/h] ff [knt] fx [km/h] fx [knt] dd vv [km] sd [min] rr [mm]
24.01.2018 04:00:00 - - - - - - - - - -
24.01.2018 03:00:00 2,4 -5,7 6 4 11 6 ESE 20 0 0,0
24.01.2018 02:00:00 3,6 -5,7 4 2 11 6 E 20 0 0,0
24.01.2018 01:00:00 3,4 -6,0 6 3 13 7 E 20 0 -
24.01.2018 00:00:00 3,3 -5,4 9 5 11 6 ESE 20 0 0,0
23.01.2018 23:00:00 3,6 -6,0 7 4 14 7 ESE 20 0 0,0
23.01.2018 22:00:00 3,5 -5,1 6 3 11 6 ESE 20 0 0,0
23.01.2018 21:00:00 4,0 -5,1 8 4 12 7 ESE 20 0 0,0
23.01.2018 20:00:00 4,6 -5,1 7 4 12 6 SE 20 0 0,0
23.01.2018 19:00:00 4,8 -5,1 5 3 12 6 ESE 20 0 -
23.01.2018 18:00:00 4,8 -4,5 5 3 11 6 ESE 20 0 0,0
23.01.2018 17:00:00 6,0 -4,2 4 2 11 6 SE 20 41 0,0
23.01.2018 16:00:00 8,6 -3,6 4 2 10 5 S 20 56 0,0
23.01.2018 15:00:00 11,8 -4,8 4 2 16 9 NW 20 60 0,0
23.01.2018 14:00:00 11,4 -4,8 7 4 14 8 W 20 60 0,0
23.01.2018 13:00:00 10,2 -5,7 4 2 16 8 WNW 20 60 -
23.01.2018 12:00:00 8,3 -7,5 3 1 8 5 WNW 20 44 0,0
23.01.2018 11:00:00 6,1 -7,8 4 2 14 8 ESE 20 40 0,0
23.01.2018 10:00:00 3,4 -8,6 8 4 12 6 E 20 0 0,0
23.01.2018 09:00:00 1,5 -8,6 5 3 14 7 SE 20 0 0,0
23.01.2018 08:00:00 1,4 -8,6 3 2 13 7 SW 20 0 0,0
23.01.2018 07:00:00 0,5 -7,8 3 2 16 8 SE 20 0 -
23.01.2018 06:00:00 1,3 -8,2 4 2 11 6 NE 20 0 0,0
23.01.2018 05:00:00 1,7 -8,6 4 2 15 8 N 20 0 0,0
23.01.2018 04:00:00 1,4 -8,6 5 3 18 10 ENE 20 0 0,0
23.01.2018 03:00:00 1,9 -7,8 8 4 36 19 SSW 20 0 0,0
23.01.2018 02:00:00 3,8 -8,2 12 7 31 17 SSW 20 0 0,0
23.01.2018 01:00:00 4,7 -7,8 11 6 55 30 NW 20 0 -
23.01.2018 00:00:00 4,2 -7,1 19 10 44 24 NW 20 0 0,0
22.01.2018 23:00:00 5,1 -4,5 17 9 40 22 NW 20 0 0,0
22.01.2018 22:00:00 5,3 -2,0 16 9 31 17 NNW 20 0 0,0
22.01.2018 21:00:00 4,6 -1,4 8 4 24 13 WNW 20 0 0,0
22.01.2018 20:00:00 4,4 -3,0 4 2 16 9 SSE 20 0 0,0
22.01.2018 19:00:00 5,1 -4,5 6 4 18 10 E 20 0 -
22.01.2018 18:00:00 6,1 -3,9 6 3 13 7 SE 20 0 0,0
22.01.2018 17:00:00 9,1 -4,8 3 2 18 10 WNW 20 40 0,0
22.01.2018 16:00:00 11,9 -8,2 9 5 18 10 W 20 59 0,0
22.01.2018 15:00:00 10,2 -5,1 4 2 10 6 NNW 20 15 0,0
22.01.2018 14:00:00 8,2 -4,8 4 2 11 6 S 20 33 0,0
22.01.2018 13:00:00 8,6 -3,9 4 2 14 8 SE 20 60 -
22.01.2018 12:00:00 7,5 -4,8 6 3 14 7 S 20 60 0,0
22.01.2018 11:00:00 6,3 -5,4 7 4 15 8 SSE 20 40 0,0
22.01.2018 10:00:00 5,7 -7,1 6 3 15 8 S 20 0 0,0
22.01.2018 09:00:00 5,1 -6,4 7 4 13 7 ESE 20 0 0,0
22.01.2018 08:00:00 4,5 -6,0 5 3 12 7 ESE 20 0 0,0
22.01.2018 07:00:00 4,2 -5,1 6 4 15 8 E 20 0 -
22.01.2018 06:00:00 3,4 -3,3 4 2 11 6 E 20 0 0,0
22.01.2018 05:00:00 4,2 -3,9 6 3 22 12 SSE 20 0 0,0
22.01.2018 04:00:00 5,6 -3,9 9 5 23 12 WSW 20 0 0,0
22.01.2018 03:00:00 5,5 -2,5 16 9 30 16 WSW 20 0 0,0
22.01.2018 02:00:00 4,9 -1,4 10 5 25 14 WNW 20 0 0,0
22.01.2018 01:00:00 5,3 0,0 6 4 23 12 W 20 0 -
22.01.2018 00:00:00 5,2 -0,3 8 4 24 13 WSW 20 0 0,0
21.01.2018 23:00:00 6,2 0,0 9 5 33 18 W 20 0 0,0
21.01.2018 22:00:00 6,3 0,9 14 8 33 18 NNW 20 0 0,0
21.01.2018 21:00:00 6,4 1,5 18 10 38 21 NW 20 0 0,0
21.01.2018 20:00:00 6,5 1,9 13 7 49 26 NW 20 0 0,0
21.01.2018 19:00:00 6,7 1,9 20 11 42 23 NNW 20 0 -
21.01.2018 18:00:00 6,4 3,0 12 7 37 20 NNW 20 0 0,0
21.01.2018 17:00:00 6,8 3,4 19 11 38 21 NW 20 39 0,0
21.01.2018 16:00:00 5,7 3,4 4 2 39 21 WNW 20 2 0,0
21.01.2018 15:00:00 5,5 3,6 11 6 27 15 W 19 0 0,2
21.01.2018 14:00:00 4,4 4,1 6 3 17 9 NW 0,2 0 0,4
21.01.2018 13:00:00 4,1 3,9 6 3 18 10 NW 0,2 0 -
21.01.2018 12:00:00 3,9 3,4 9 5 20 11 WNW 1,9 0 1,4
21.01.2018 11:00:00 3,6 3,2 8 4 23 12 NNW 0,1 0 0,8
21.01.2018 10:00:00 3,5 3,4 9 5 17 9 W 4,3 0 0,8
21.01.2018 09:00:00 3,1 3,0 8 4 21 11 NW 0,4 0 1,2
21.01.2018 08:00:00 3,1 3,0 6 3 15 8 WNW 0,6 0 1,0
21.01.2018 07:00:00 3,1 2,7 5 3 14 8 WNW 1,5 0 -
21.01.2018 06:00:00 3,7 2,3 7 4 23 12 W 6 0 0,8
21.01.2018 05:00:00 4,1 2,1 12 6 23 12 WSW 6 0 0,4
21.01.2018 04:00:00 4,5 1,7 9 5 20 11 W 11 0 0,0
21.01.2018 03:00:00 4,8 1,3 10 5 23 13 WNW 20 0 0,0
21.01.2018 02:00:00 5,1 1,3 10 6 32 17 NW 20 0 0,0
21.01.2018 01:00:00 - - - - - - - - - -
21.01.2018 00:00:00 4,0 1,3 5 3 17 9 S 20 0 0,0
20.01.2018 23:00:00 4,8 0,6 6 3 16 9 NW 20 0 0,0
20.01.2018 22:00:00 5,9 0,4 10 5 44 24 NNW 20 0 0,0
20.01.2018 21:00:00 5,0 0,4 6 3 23 12 W 20 0 0,0
20.01.2018 20:00:00 4,8 0,6 9 5 21 12 NW 20 0 0,0
20.01.2018 19:00:00 4,0 0,0 3 1 12 7 ESE 20 0 -
20.01.2018 18:00:00 4,4 -0,7 5 3 16 9 W 20 0 0,0
20.01.2018 17:00:00 5,6 -1,4 5 3 18 10 WNW 20 33 0,0
20.01.2018 16:00:00 6,9 -1,4 8 4 16 8 NW 20 56 0,0
20.01.2018 15:00:00 6,7 -2,0 4 2 21 12 WNW 20 60 0,0
20.01.2018 14:00:00 7,0 -2,7 3 2 17 9 E 20 47 0,0
20.01.2018 13:00:00 3,1 -4,5 8 4 16 9 E 20 38 -
20.01.2018 12:00:00 3,3 -6,0 7 4 19 11 ENE 20 36 0,0
20.01.2018 11:00:00 1,2 -6,0 5 3 20 11 SE 20 12 0,0
20.01.2018 10:00:00 -0,2 -7,1 6 3 11 6 ENE 20 0 0,0
20.01.2018 09:00:00 -2,2 -8,2 5 3 11 6 ESE 20 0 0,0
20.01.2018 08:00:00 -3,8 -8,6 5 3 10 6 SW 20 0 0,0
20.01.2018 07:00:00 -2,6 -7,8 4 2 12 6 SE 20 0 -
20.01.2018 06:00:00 -3,5 -7,8 6 3 11 6 S 20 0 0,0
20.01.2018 05:00:00 -3,3 -7,5 5 3 10 5 SE 20 0 0,0
20.01.2018 04:00:00 -2,2 -7,5 4 2 14 7 SE 20 0 0,0
20.01.2018 03:00:00 -2,6 -7,5 6 3 12 7 S 20 0 0,0
20.01.2018 02:00:00 -2,8 -7,5 8 4 15 8 SSE 20 0 0,0
20.01.2018 01:00:00 - - - - - - - - - -
20.01.2018 00:00:00 -2,5 -7,8 6 4 11 6 S 20 0 0,0
19.01.2018 23:00:00 -2,2 -7,1 4 2 16 9 ENE 20 0 0,0
19.01.2018 22:00:00 -2,4 -7,1 7 4 15 8 S 20 0 0,0
19.01.2018 21:00:00 -2,1 -7,5 5 3 12 7 SSE 20 0 0,0
19.01.2018 20:00:00 -1,3 -7,1 5 3 14 7 ESE 20 0 0,0
19.01.2018 19:00:00 -0,6 -6,4 7 4 13 7 ESE 20 0 -
19.01.2018 18:00:00 0,1 -6,0 6 3 15 8 SSE 20 0 0,0
19.01.2018 17:00:00 1,8 -5,7 5 3 10 6 ESE 20 26 0,0
19.01.2018 16:00:00 2,7 -4,8 5 3 12 6 SE 20 42 0,0
19.01.2018 15:00:00 4,4 -4,2 7 4 16 9 SE 20 59 0,0
19.01.2018 14:00:00 6,5 -4,5 5 3 14 7 NW 20 60 0,0
19.01.2018 13:00:00 4,0 -6,7 8 5 14 7 SSE 20 60 -
19.01.2018 12:00:00 3,3 -6,7 4 2 10 6 SSE 20 60 0,0
19.01.2018 11:00:00 2,3 -6,7 5 3 10 6 S 20 36 0,0
19.01.2018 10:00:00 0,9 -7,8 6 3 13 7 S 20 0 0,0
19.01.2018 09:00:00 -0,1 -7,8 7 4 15 8 SSW 20 0 0,0
19.01.2018 08:00:00 -0,4 -7,1 8 4 12 7 SE 20 0 0,0
19.01.2018 07:00:00 0,1 -6,7 5 3 11 6 SE 20 0 -
19.01.2018 06:00:00 0,0 -6,0 7 4 11 6 ESE 20 0 0,0
19.01.2018 05:00:00 0,0 -6,0 5 3 11 6 SSE 20 0 0,0
19.01.2018 04:00:00 0,1 -6,0 6 4 11 6 SSE 20 0 0,0
19.01.2018 03:00:00 0,4 -5,7 6 4 12 6 ESE 20 0 0,0
19.01.2018 02:00:00 0,8 -5,7 8 5 13 7 ESE 20 0 0,0
19.01.2018 01:00:00 0,6 -5,7 7 4 12 6 ESE 20 0 -
19.01.2018 00:00:00 1,1 -6,4 6 4 13 7 SE 20 0 0,0
18.01.2018 23:00:00 1,4 -6,0 6 4 13 7 ESE 20 0 0,0
18.01.2018 22:00:00 1,6 -6,4 6 4 12 7 SE 20 0 0,0
18.01.2018 21:00:00 1,1 -6,4 7 4 12 6 SE 20 0 0,0
18.01.2018 20:00:00 0,6 -5,7 7 4 12 6 ESE 20 0 0,0
18.01.2018 19:00:00 1,0 -5,4 8 4 13 7 SE 20 0 -
18.01.2018 18:00:00 1,7 -5,7 8 4 12 6 ESE 20 0 0,0
18.01.2018 17:00:00 2,8 -5,7 7 4 11 6 ESE 20 35 0,0
18.01.2018 16:00:00 5,1 -5,7 5 3 10 6 SE 20 60 0,0
18.01.2018 15:00:00 5,6 -5,4 5 3 10 5 SE 20 60 0,0
18.01.2018 14:00:00 4,9 -5,1 6 4 11 6 SSE 20 60 0,0
18.01.2018 13:00:00 5,1 -6,4 4 2 9 5 SSE 20 60 -
18.01.2018 12:00:00 - - - - - - - - - -
18.01.2018 11:00:00 3,2 -6,4 6 3 12 6 ESE 20 37 18,0
18.01.2018 10:00:00 0,1 -8,6 7 4 11 6 SE 20 0 0,0
18.01.2018 09:00:00 -0,6 -8,6 5 3 11 6 SE 20 0 0,0
18.01.2018 08:00:00 -0,9 -9,0 6 4 11 6 SE 20 0 0,0
18.01.2018 07:00:00 -1,7 -9,4 7 4 11 6 ESE 20 0 -
18.01.2018 06:00:00 -1,8 -10,3 5 3 12 6 ESE 20 0 0,0
18.01.2018 05:00:00 -2,4 -11,2 3 2 11 6 E 20 0 0,0
18.01.2018 04:00:00 -2,6 -10,8 4 2 11 6 ESE 20 0 0,0

tt = Température de l'air
td = dewpoint
ff = Vitesse du vent
fx = gusts
dd = Direction du vent
vv = visibility
sd = Ensoleillement
rr = Quantités de précipitations

stations d'obs. à proximité